Time;durP1;ratioP1;P1;durP2;ratioP2;P2;SDS_P1;SDS_P2;PMS_P1;PMS_P2;Temp;Humidity;BMP_temperature;BMP_pressure;BME280_temperature;BME280_humidity;BME280_pressure;Samples;Min_cycle;Max_cycle;Signal;HPM_P1;HPM_P2
2021/05/01 00:01:20;;;;;;;47.63;32.33;;;6.60;99.90;;;;;;5128650;27;20243;-71
2021/05/01 00:03:46;;;;;;;44.10;31.40;;;6.70;99.90;;;;;;5127549;27;20747;-70
2021/05/01 00:06:13;;;;;;;45.08;31.35;;;6.70;99.90;;;;;;5128381;27;20206;-70
2021/05/01 00:08:39;;;;;;;45.33;31.90;;;6.60;99.90;;;;;;5126578;27;20263;-71
2021/05/01 00:11:06;;;;;;;49.50;33.17;;;6.60;99.90;;;;;;5127920;27;20199;-71
2021/05/01 00:13:34;;;;;;;48.30;34.28;;;6.50;99.90;;;;;;5124926;27;20700;-71
2021/05/01 00:16:03;;;;;;;50.03;33.80;;;6.60;99.90;;;;;;5124655;27;20763;-70
2021/05/01 00:18:30;;;;;;;44.65;33.90;;;6.60;99.90;;;;;;5128740;27;20404;-70
2021/05/01 00:20:56;;;;;;;51.42;31.70;;;6.50;99.90;;;;;;5127555;27;20195;-71
2021/05/01 00:23:23;;;;;;;50.75;33.08;;;6.60;99.90;;;;;;5126308;27;20202;-70
2021/05/01 00:25:49;;;;;;;47.20;33.95;;;6.60;99.90;;;;;;5132622;27;20645;-70
2021/05/01 00:28:16;;;;;;;54.03;33.20;;;6.60;99.90;;;;;;5126686;27;20195;-70
2021/05/01 00:30:43;;;;;;;49.00;34.92;;;6.50;99.90;;;;;;5121182;27;20203;-71
2021/05/01 00:33:10;;;;;;;47.45;32.63;;;6.60;99.90;;;;;;5128979;27;20258;-71
2021/05/01 00:35:36;;;;;;;46.35;32.10;;;6.60;99.90;;;;;;5121264;27;20290;-71
2021/05/01 00:38:03;;;;;;;51.85;34.47;;;6.70;99.90;;;;;;5127035;27;20199;-70
2021/05/01 00:40:29;;;;;;;51.25;35.17;;;6.70;99.90;;;;;;5115524;27;20235;-71
2021/05/01 00:42:56;;;;;;;47.35;32.70;;;6.70;99.90;;;;;;5121708;27;20191;-70
2021/05/01 00:45:23;;;;;;;52.90;36.17;;;6.70;99.90;;;;;;5127030;27;20199;-70
2021/05/01 00:47:49;;;;;;;47.50;34.67;;;6.60;99.90;;;;;;5127120;27;20286;-71
2021/05/01 00:50:16;;;;;;;46.00;34.10;;;6.70;99.90;;;;;;5122375;27;20192;-71
2021/05/01 00:52:43;;;;;;;44.35;32.67;;;6.70;99.90;;;;;;5125419;27;20365;-71
2021/05/01 00:55:11;;;;;;;48.58;35.35;;;6.60;99.90;;;;;;5121280;27;20206;-71
2021/05/01 00:57:38;;;;;;;43.03;32.50;;;6.70;99.90;;;;;;5128097;27;20203;-71
2021/05/01 01:00:11;;;;;;;51.25;34.65;;;6.70;99.90;;;;;;5126868;27;20199;-71
2021/05/01 01:02:38;;;;;;;55.08;35.20;;;6.80;99.90;;;;;;5127629;27;20291;-71
2021/05/01 01:05:06;;;;;;;46.60;34.67;;;6.80;99.90;;;;;;5126921;27;20203;-71
2021/05/01 01:07:32;;;;;;;45.22;33.33;;;6.80;99.90;;;;;;5126780;27;20670;-70
2021/05/01 01:09:58;;;;;;;50.38;35.40;;;6.80;99.90;;;;;;5124223;27;20282;-71
2021/05/01 01:12:25;;;;;;;46.03;32.88;;;6.80;99.90;;;;;;5127290;27;20203;-70
2021/05/01 01:14:51;;;;;;;48.72;33.60;;;6.90;99.90;;;;;;5130708;27;20203;-70
2021/05/01 01:17:17;;;;;;;47.10;33.30;;;6.90;99.90;;;;;;5127416;27;20298;-71
2021/05/01 01:19:44;;;;;;;49.92;34.58;;;6.90;99.90;;;;;;5126613;27;20627;-71
2021/05/01 01:22:17;;;;;;;47.55;33.60;;;6.90;99.90;;;;;;5125960;27;20210;-70
2021/05/01 01:24:43;;;;;;;46.30;35.05;;;6.90;99.90;;;;;;5126761;27;20214;-69
2021/05/01 01:27:10;;;;;;;48.28;33.15;;;6.90;99.90;;;;;;5127227;27;20286;-70
2021/05/01 01:29:38;;;;;;;43.63;31.55;;;6.90;99.90;;;;;;5125866;27;20265;-71
2021/05/01 01:32:06;;;;;;;51.03;32.55;;;6.90;99.90;;;;;;5126546;27;20289;-71
2021/05/01 01:34:33;;;;;;;40.45;31.55;;;7.00;99.90;;;;;;5123963;27;20229;-71
2021/05/01 01:36:59;;;;;;;46.42;34.72;;;6.90;99.90;;;;;;5126531;27;20199;-70
2021/05/01 01:39:27;;;;;;;43.78;32.30;;;6.90;99.90;;;;;;5126449;27;20206;-71
2021/05/01 01:41:54;;;;;;;48.20;33.92;;;6.90;99.90;;;;;;5123169;27;20199;-71
2021/05/01 01:44:20;;;;;;;47.33;32.95;;;7.00;99.90;;;;;;5131078;27;20225;-71
2021/05/01 01:46:46;;;;;;;49.63;32.72;;;6.90;99.90;;;;;;5126173;27;20207;-71
2021/05/01 01:49:13;;;;;;;42.88;31.40;;;6.90;99.90;;;;;;5120317;27;20206;-70
2021/05/01 01:51:39;;;;;;;48.25;33.00;;;6.90;99.90;;;;;;5118318;27;20207;-71
2021/05/01 01:54:06;;;;;;;43.08;32.22;;;6.90;99.90;;;;;;5116415;27;20219;-71
2021/05/01 01:56:37;;;;;;;47.58;33.20;;;7.00;99.90;;;;;;5115063;27;20201;-70
2021/05/01 01:59:04;;;;;;;41.30;31.10;;;7.00;99.90;;;;;;5120598;27;20286;-71
2021/05/01 02:01:30;;;;;;;47.25;33.38;;;7.10;99.90;;;;;;5111243;27;20209;-71
2021/05/01 02:03:57;;;;;;;46.53;32.05;;;7.00;99.90;;;;;;5127439;27;20290;-71
2021/05/01 02:06:23;;;;;;;43.63;31.02;;;7.00;99.90;;;;;;5126151;27;20676;-71
2021/05/01 02:08:49;;;;;;;47.53;33.10;;;7.10;99.90;;;;;;5119898;28;20952;-71
2021/05/01 02:11:16;;;;;;;42.40;30.17;;;7.20;99.90;;;;;;5125607;28;20202;-71
2021/05/01 02:13:43;;;;;;;40.72;32.30;;;7.10;99.90;;;;;;5119294;28;20234;-72
2021/05/01 02:16:10;;;;;;;43.17;31.25;;;7.00;99.90;;;;;;5118261;28;20286;-71
2021/05/01 02:18:36;;;;;;;43.42;32.15;;;7.00;99.90;;;;;;5111372;28;20206;-70
2021/05/01 02:21:04;;;;;;;45.70;32.28;;;7.00;99.90;;;;;;5122148;28;20284;-71
2021/05/01 02:23:30;;;;;;;42.90;31.90;;;6.90;99.90;;;;;;5118234;28;20207;-71
2021/05/01 02:25:56;;;;;;;39.92;30.98;;;6.90;99.90;;;;;;5126853;28;20191;-71
2021/05/01 02:28:23;;;;;;;41.67;30.50;;;6.90;99.90;;;;;;5126048;28;20195;-71
2021/05/01 02:30:50;;;;;;;47.45;32.58;;;6.90;99.90;;;;;;5120899;28;20204;-71
2021/05/01 02:33:16;;;;;;;39.40;32.95;;;6.90;99.90;;;;;;5122379;28;20317;-71
2021/05/01 02:35:43;;;;;;;41.58;32.15;;;6.90;99.90;;;;;;5118960;28;20332;-72
2021/05/01 02:38:09;;;;;;;41.42;33.10;;;7.10;99.90;;;;;;5127253;27;20203;-71
2021/05/01 02:40:36;;;;;;;45.22;32.92;;;7.10;99.90;;;;;;5124066;27;20203;-71
2021/05/01 02:43:04;;;;;;;46.75;35.97;;;7.10;99.90;;;;;;5129835;27;20195;-71
2021/05/01 02:45:31;;;;;;;47.58;33.70;;;7.00;99.90;;;;;;5129221;27;20206;-70
2021/05/01 02:47:58;;;;;;;43.70;33.15;;;7.10;99.90;;;;;;5128902;27;20229;-71
2021/05/01 02:50:24;;;;;;;45.30;34.00;;;7.20;99.90;;;;;;5128341;27;20226;-71
2021/05/01 02:52:51;;;;;;;47.10;34.15;;;7.10;99.90;;;;;;5128760;27;20310;-71
2021/05/01 02:55:18;;;;;;;48.47;32.40;;;7.10;99.90;;;;;;5127609;27;20197;-72
2021/05/01 02:57:44;;;;;;;48.63;35.03;;;7.10;99.90;;;;;;5129621;27;20203;-71
2021/05/01 03:00:13;;;;;;;47.60;33.45;;;7.20;99.90;;;;;;5133462;27;20729;-71
2021/05/01 03:02:40;;;;;;;45.38;31.98;;;7.20;99.90;;;;;;5133709;27;20779;-71
2021/05/01 03:05:09;;;;;;;48.10;34.45;;;7.20;99.90;;;;;;5129840;27;20203;-71
2021/05/01 03:07:36;;;;;;;50.70;35.15;;;7.30;99.90;;;;;;5130956;27;20576;-71
2021/05/01 03:10:04;;;;;;;47.83;34.55;;;7.30;99.90;;;;;;5129092;27;20671;-71
2021/05/01 03:12:30;;;;;;;51.17;35.78;;;7.20;99.90;;;;;;5127710;27;20209;-71
2021/05/01 03:14:56;;;;;;;49.22;32.60;;;7.30;99.90;;;;;;5138540;27;20306;-71
2021/05/01 03:17:23;;;;;;;46.40;33.83;;;7.30;99.90;;;;;;5130160;27;20206;-71
2021/05/01 03:19:49;;;;;;;54.17;37.10;;;7.20;99.90;;;;;;5127108;27;20378;-72
2021/05/01 03:22:16;;;;;;;48.63;34.40;;;7.20;99.90;;;;;;5128571;27;20203;-71
2021/05/01 03:24:43;;;;;;;52.67;33.47;;;7.10;99.90;;;;;;5120797;27;20203;-71
2021/05/01 03:27:09;;;;;;;52.17;36.13;;;7.10;99.90;;;;;;5118961;27;20328;-71
2021/05/01 03:29:35;;;;;;;54.10;36.85;;;7.10;99.90;;;;;;5128349;27;20251;-71
2021/05/01 03:32:02;;;;;;;51.92;34.42;;;7.10;99.90;;;;;;5124607;27;21136;-70
2021/05/01 03:34:28;;;;;;;50.83;34.10;;;7.20;99.90;;;;;;5124507;27;20355;-71
2021/05/01 03:36:54;;;;;;;52.47;38.17;;;7.10;99.90;;;;;;5120192;27;20736;-70
2021/05/01 03:39:21;;;;;;;49.65;35.33;;;7.10;99.90;;;;;;5127039;27;20197;-71
2021/05/01 03:41:48;;;;;;;54.60;35.22;;;7.00;99.90;;;;;;5128934;27;20598;-71
2021/05/01 03:44:14;;;;;;;51.83;34.80;;;7.30;99.90;;;;;;5124526;27;20680;-71
2021/05/01 03:46:41;;;;;;;44.83;32.95;;;7.20;99.90;;;;;;5120386;27;20203;-71
2021/05/01 03:49:07;;;;;;;53.90;37.80;;;7.10;99.90;;;;;;5127839;27;20644;-70
2021/05/01 03:51:34;;;;;;;51.58;36.40;;;7.10;99.90;;;;;;5126625;27;20233;-70
2021/05/01 03:54:00;;;;;;;53.30;35.90;;;7.00;99.90;;;;;;5122502;27;20242;-71
2021/05/01 03:56:28;;;;;;;55.17;37.20;;;7.00;99.90;;;;;;5127120;27;20213;-71
2021/05/01 03:58:54;;;;;;;59.35;39.00;;;7.00;99.90;;;;;;5126327;27;20215;-70
2021/05/01 04:01:20;;;;;;;51.90;36.35;;;6.90;99.90;;;;;;5120860;27;20291;-71
2021/05/01 04:03:46;;;;;;;52.75;38.03;;;6.90;99.90;;;;;;5129293;27;20195;-71
2021/05/01 04:06:13;;;;;;;53.00;34.65;;;7.00;99.90;;;;;;5126975;27;20195;-71
2021/05/01 04:08:39;;;;;;;57.40;37.95;;;6.90;99.90;;;;;;5128165;27;20678;-71
2021/05/01 04:11:06;;;;;;;53.60;37.25;;;6.90;99.90;;;;;;5128459;27;20209;-71
2021/05/01 04:13:33;;;;;;;54.10;36.65;;;6.90;99.90;;;;;;5128940;27;20275;-70
2021/05/01 04:16:03;;;;;;;52.88;36.15;;;7.10;99.90;;;;;;5127532;27;20199;-70
2021/05/01 04:18:29;;;;;;;54.28;36.72;;;7.20;99.90;;;;;;5126559;27;20264;-70
2021/05/01 04:20:55;;;;;;;53.38;36.35;;;7.30;99.90;;;;;;5126750;27;20203;-71
2021/05/01 04:23:22;;;;;;;50.75;37.03;;;7.20;99.90;;;;;;5128696;27;20195;-71
2021/05/01 04:25:48;;;;;;;49.30;34.75;;;7.10;99.90;;;;;;5125688;27;20294;-71
2021/05/01 04:28:14;;;;;;;50.03;35.72;;;7.10;99.90;;;;;;5119634;27;20287;-70
2021/05/01 04:30:41;;;;;;;53.28;36.70;;;7.20;99.90;;;;;;5127635;27;20237;-71
2021/05/01 04:33:08;;;;;;;50.08;34.67;;;7.20;99.90;;;;;;5120304;27;20227;-71
2021/05/01 04:35:34;;;;;;;48.08;33.60;;;7.40;99.90;;;;;;5120639;27;20203;-71
2021/05/01 04:38:01;;;;;;;47.05;32.83;;;7.50;99.90;;;;;;5119450;27;20199;-71
2021/05/01 04:40:27;;;;;;;50.10;33.70;;;7.50;99.90;;;;;;5112870;27;20203;-71
2021/05/01 04:42:59;;;;;;;48.33;35.15;;;7.50;99.90;;;;;;5121559;27;20207;-71
2021/05/01 04:45:26;;;;;;;45.95;34.45;;;7.50;99.90;;;;;;5130808;27;20282;-71
2021/05/01 04:47:53;;;;;;;50.70;34.88;;;7.50;99.90;;;;;;5126213;27;20265;-70
2021/05/01 04:50:20;;;;;;;43.13;32.60;;;7.50;99.90;;;;;;5117824;27;20199;-71
2021/05/01 04:52:46;;;;;;;51.28;34.55;;;7.50;99.90;;;;;;5126266;27;20198;-71
2021/05/01 04:55:13;;;;;;;46.75;33.78;;;7.60;99.90;;;;;;5122421;27;20298;-71
2021/05/01 04:57:42;;;;;;;44.80;34.08;;;7.80;99.90;;;;;;5121139;27;20301;-71
2021/05/01 05:00:09;;;;;;;42.78;32.13;;;7.90;99.90;;;;;;5130122;27;20700;-71
2021/05/01 05:02:36;;;;;;;45.80;34.60;;;7.80;99.90;;;;;;5125000;27;20344;-71
2021/05/01 05:05:04;;;;;;;43.38;31.20;;;8.00;99.90;;;;;;5123466;27;20201;-71
2021/05/01 05:07:30;;;;;;;44.35;33.97;;;8.10;99.90;;;;;;5124598;27;20560;-70
2021/05/01 05:09:57;;;;;;;45.38;33.92;;;8.10;99.90;;;;;;5125074;27;20199;-71
2021/05/01 05:12:23;;;;;;;44.80;33.17;;;8.20;99.90;;;;;;5126238;27;20203;-71
2021/05/01 05:14:49;;;;;;;42.60;31.27;;;8.40;99.90;;;;;;5122376;27;20314;-71
2021/05/01 05:17:16;;;;;;;48.10;34.90;;;8.40;99.90;;;;;;5112422;27;20236;-72
2021/05/01 05:19:42;;;;;;;43.83;32.42;;;8.30;99.90;;;;;;5124256;27;21024;-71
2021/05/01 05:22:10;;;;;;;42.22;31.65;;;8.30;99.90;;;;;;5119798;27;20208;-71
2021/05/01 05:24:36;;;;;;;42.28;31.25;;;8.20;99.90;;;;;;5123596;27;20275;-71
2021/05/01 05:27:03;;;;;;;44.33;31.20;;;8.10;99.90;;;;;;5118709;27;20199;-70
2021/05/01 05:29:30;;;;;;;44.97;32.38;;;8.30;99.90;;;;;;5124717;27;20287;-68
2021/05/01 05:31:56;;;;;;;38.55;29.65;;;8.30;99.90;;;;;;5123366;27;20719;-71
2021/05/01 05:34:23;;;;;;;37.13;28.90;;;8.30;99.90;;;;;;5125315;27;20788;-69
2021/05/01 05:36:49;;;;;;;38.70;29.83;;;8.40;99.90;;;;;;5124090;27;20203;-69
2021/05/01 05:39:17;;;;;;;39.33;29.88;;;8.40;99.90;;;;;;5121177;27;20199;-69
2021/05/01 05:41:44;;;;;;;35.90;27.08;;;8.60;99.90;;;;;;5122435;27;20556;-68
2021/05/01 05:44:11;;;;;;;43.40;32.08;;;8.80;99.90;;;;;;5115005;27;20246;-68
2021/05/01 05:46:37;;;;;;;39.25;29.75;;;9.00;99.90;;;;;;5120363;27;20206;-68
2021/05/01 05:49:04;;;;;;;39.17;30.88;;;9.10;99.90;;;;;;5124810;27;20203;-68
2021/05/01 05:51:30;;;;;;;41.92;31.42;;;9.40;99.90;;;;;;5118314;27;20616;-68
2021/05/01 05:53:57;;;;;;;37.30;30.30;;;9.40;99.90;;;;;;5122099;27;20319;-68
2021/05/01 05:56:25;;;;;;;37.20;30.88;;;9.50;99.90;;;;;;5123287;27;20202;-68
2021/05/01 05:58:51;;;;;;;37.28;27.63;;;9.60;99.90;;;;;;5117646;27;20631;-69
2021/05/01 06:01:17;;;;;;;36.70;29.40;;;9.50;99.90;;;;;;5127380;27;20203;-68
2021/05/01 06:03:47;;;;;;;40.40;28.35;;;9.60;99.90;;;;;;5128309;27;20204;-69
2021/05/01 06:06:20;;;;;;;34.70;29.10;;;9.70;99.90;;;;;;5115385;27;20203;-68
2021/05/01 06:08:47;;;;;;;29.17;22.30;;;9.80;99.90;;;;;;5120130;27;20319;-68
2021/05/01 06:11:19;;;;;;;28.52;22.33;;;9.90;99.90;;;;;;5092415;27;20291;-69
2021/05/01 06:13:47;;;;;;;27.88;22.90;;;9.80;99.90;;;;;;5115034;27;20674;-68
2021/05/01 06:16:14;;;;;;;25.35;19.77;;;10.10;99.90;;;;;;5117777;27;20291;-68
2021/05/01 06:18:44;;;;;;;24.52;19.80;;;10.00;99.90;;;;;;5122312;28;20209;-68
2021/05/01 06:21:10;;;;;;;22.15;18.70;;;10.00;99.90;;;;;;5117896;28;20199;-67
2021/05/01 06:23:38;;;;;;;23.88;19.02;;;9.90;99.90;;;;;;5124375;28;20207;-68
2021/05/01 06:26:05;;;;;;;27.67;21.27;;;9.80;99.90;;;;;;5123881;28;20663;-68
2021/05/01 06:28:33;;;;;;;26.70;19.90;;;9.80;99.90;;;;;;5119750;28;20677;-68
2021/05/01 06:31:01;;;;;;;25.00;20.17;;;9.60;99.90;;;;;;5122664;28;20207;-68
2021/05/01 06:33:29;;;;;;;26.30;19.05;;;9.90;99.90;;;;;;5125047;27;20237;-69
2021/05/01 06:35:55;;;;;;;23.10;19.65;;;10.00;99.90;;;;;;5117588;28;20203;-68
2021/05/01 06:38:22;;;;;;;24.40;19.92;;;9.90;99.90;;;;;;5117121;28;20204;-68
2021/05/01 06:40:52;;;;;;;22.38;17.90;;;9.80;99.90;;;;;;5119273;27;20207;-68
2021/05/01 06:43:27;;;;;;;24.05;18.10;;;9.90;99.90;;;;;;5123825;28;20202;-68
2021/05/01 06:45:54;;;;;;;18.60;15.10;;;9.70;99.90;;;;;;5117979;28;20229;-68
2021/05/01 06:48:26;;;;;;;27.15;19.52;;;9.60;99.90;;;;;;5114137;28;20299;-68
2021/05/01 06:50:53;;;;;;;22.35;17.65;;;9.60;99.90;;;;;;5122466;27;20205;-68
2021/05/01 06:53:29;;;;;;;19.70;16.05;;;9.70;99.90;;;;;;5125954;28;20229;-68
2021/05/01 06:56:00;;;;;;;18.90;16.77;;;9.60;99.90;;;;;;5117193;28;20279;-68
2021/05/01 06:58:27;;;;;;;19.98;16.05;;;9.50;99.90;;;;;;5121045;28;20209;-68
2021/05/01 07:00:54;;;;;;;17.90;15.30;;;9.40;99.90;;;;;;5118401;28;20643;-68
2021/05/01 07:03:23;;;;;;;19.17;15.55;;;9.40;99.90;;;;;;5120055;28;20209;-68
2021/05/01 07:05:51;;;;;;;17.70;15.68;;;9.60;99.90;;;;;;5118520;28;20625;-68
2021/05/01 07:08:17;;;;;;;15.68;12.80;;;9.50;99.90;;;;;;5127159;27;20200;-68
2021/05/01 07:10:44;;;;;;;16.30;13.65;;;9.70;99.90;;;;;;5115702;28;20219;-67
2021/05/01 07:13:13;;;;;;;21.02;14.45;;;9.80;99.90;;;;;;5116485;28;20202;-68
2021/05/01 07:15:41;;;;;;;21.38;16.92;;;9.80;99.90;;;;;;5123897;28;20203;-68
2021/05/01 07:18:09;;;;;;;27.25;19.75;;;9.80;99.90;;;;;;5119924;28;20285;-68
2021/05/01 07:20:36;;;;;;;24.23;18.05;;;9.70;99.90;;;;;;5117700;28;20215;-68
2021/05/01 07:23:03;;;;;;;20.55;17.75;;;9.80;99.90;;;;;;5125857;28;20203;-69
2021/05/01 07:25:29;;;;;;;19.65;17.40;;;9.90;99.90;;;;;;5125305;27;20822;-69
2021/05/01 07:28:00;;;;;;;21.23;17.48;;;10.10;99.90;;;;;;5120333;27;20201;-69
2021/05/01 07:30:28;;;;;;;20.00;16.77;;;10.20;99.90;;;;;;5119760;27;20200;-69
2021/05/01 07:33:00;;;;;;;20.20;15.85;;;10.00;99.90;;;;;;5120923;27;20201;-68
2021/05/01 07:35:30;;;;;;;23.80;18.73;;;10.20;99.90;;;;;;5122419;27;20203;-68
2021/05/01 07:37:58;;;;;;;23.83;19.83;;;10.30;99.90;;;;;;5123984;27;20256;-68
2021/05/01 07:40:26;;;;;;;21.05;18.10;;;10.50;99.90;;;;;;5124221;27;20262;-68
2021/05/01 07:42:53;;;;;;;23.30;19.15;;;10.40;99.90;;;;;;5134191;27;20195;-68
2021/05/01 07:45:22;;;;;;;24.60;18.92;;;10.00;99.90;;;;;;5124081;27;20199;-68
2021/05/01 07:47:51;;;;;;;20.52;17.67;;;10.30;99.90;;;;;;5126837;27;20395;-68
2021/05/01 07:50:18;;;;;;;25.50;19.38;;;10.30;99.90;;;;;;5127088;27;20660;-69
2021/05/01 07:52:45;;;;;;;22.52;18.67;;;10.30;99.90;;;;;;5130017;27;20249;-68
2021/05/01 07:55:12;;;;;;;26.17;18.58;;;10.40;99.90;;;;;;5125978;27;20230;-68
2021/05/01 07:57:39;;;;;;;22.77;18.60;;;10.30;99.90;;;;;;5124037;27;20199;-68
2021/05/01 08:00:07;;;;;;;23.75;19.25;;;10.30;99.90;;;;;;5116423;27;20575;-68
2021/05/01 08:02:34;;;;;;;21.45;17.92;;;10.20;99.90;;;;;;5124019;27;20198;-70
2021/05/01 08:05:01;;;;;;;27.95;17.52;;;10.10;99.90;;;;;;5122902;27;20230;-69
2021/05/01 08:07:27;;;;;;;23.95;19.38;;;10.20;99.90;;;;;;5120722;27;20769;-69
2021/05/01 08:09:53;;;;;;;25.15;18.55;;;10.00;99.90;;;;;;5127927;27;20199;-69
2021/05/01 08:12:20;;;;;;;23.90;19.25;;;10.00;99.90;;;;;;5123138;27;20286;-68
2021/05/01 08:14:47;;;;;;;23.33;20.20;;;9.80;99.90;;;;;;5127163;27;20231;-68
2021/05/01 08:17:13;;;;;;;21.88;18.45;;;9.80;99.90;;;;;;5123922;27;20691;-68
2021/05/01 08:19:39;;;;;;;23.58;18.40;;;10.00;99.90;;;;;;5122533;27;20286;-68
2021/05/01 08:22:07;;;;;;;26.13;19.55;;;10.10;99.90;;;;;;5128906;27;20199;-68
2021/05/01 08:24:33;;;;;;;25.77;20.90;;;10.10;99.90;;;;;;5123573;27;20576;-68
2021/05/01 08:26:59;;;;;;;27.20;20.67;;;10.20;99.90;;;;;;5116510;27;20200;-68
2021/05/01 08:29:26;;;;;;;23.25;17.35;;;10.30;99.90;;;;;;5120039;27;20263;-68
2021/05/01 08:31:53;;;;;;;24.55;19.88;;;10.20;99.90;;;;;;5121777;27;20205;-68
2021/05/01 08:34:19;;;;;;;31.58;22.17;;;10.20;99.90;;;;;;5119450;27;20664;-68
2021/05/01 08:36:45;;;;;;;24.52;19.95;;;10.40;99.90;;;;;;5127102;27;20203;-68
2021/05/01 08:39:12;;;;;;;25.90;20.45;;;10.60;99.90;;;;;;5120992;27;20187;-69
2021/05/01 08:41:38;;;;;;;27.15;19.88;;;10.80;99.90;;;;;;5122430;27;20226;-69
2021/05/01 08:44:07;;;;;;;24.02;18.15;;;11.00;99.90;;;;;;5127686;27;20195;-68
2021/05/01 08:46:34;;;;;;;24.73;19.35;;;11.10;99.90;;;;;;5127755;27;20788;-68
2021/05/01 08:49:01;;;;;;;22.73;18.88;;;11.00;99.90;;;;;;5123833;27;20295;-68
2021/05/01 08:51:28;;;;;;;23.85;19.60;;;11.00;99.90;;;;;;5125722;27;20247;-69
2021/05/01 08:53:54;;;;;;;23.30;19.48;;;11.00;99.90;;;;;;5119343;27;20333;-68
2021/05/01 08:56:21;;;;;;;25.02;19.27;;;10.80;99.90;;;;;;5121124;27;20667;-68
2021/05/01 08:58:48;;;;;;;26.02;19.98;;;10.40;99.90;;;;;;5119438;27;20213;-68
2021/05/01 09:01:15;;;;;;;27.83;19.67;;;10.40;99.90;;;;;;5121428;27;20651;-68
2021/05/01 09:03:43;;;;;;;27.73;21.45;;;10.50;99.90;;;;;;5123401;27;20287;-69
2021/05/01 09:06:10;;;;;;;25.10;19.33;;;10.60;99.90;;;;;;5116356;27;20203;-69
2021/05/01 09:08:40;;;;;;;27.92;21.92;;;10.70;99.90;;;;;;5123578;27;20700;-67
2021/05/01 09:11:07;;;;;;;24.42;20.00;;;10.90;99.90;;;;;;5123055;27;20199;-68
2021/05/01 09:13:34;;;;;;;22.88;18.65;;;11.30;99.90;;;;;;5122197;27;20238;-68
2021/05/01 09:16:02;;;;;;;23.27;19.45;;;11.90;99.90;;;;;;5115637;27;20287;-68
2021/05/01 09:18:43;;;;;;;25.00;19.90;;;12.00;99.90;;;;;;5125691;27;20612;-69
2021/05/01 09:21:15;;;;;;;25.38;20.17;;;12.30;99.90;;;;;;5119639;27;20203;-68
2021/05/01 09:23:41;;;;;;;26.63;21.60;;;12.20;99.90;;;;;;5121914;27;20235;-69
2021/05/01 09:26:08;;;;;;;28.58;22.70;;;12.00;99.90;;;;;;5114803;27;20200;-69
2021/05/01 09:28:42;;;;;;;28.73;22.88;;;11.60;99.90;;;;;;5123287;27;20295;-69
2021/05/01 09:31:10;;;;;;;28.65;22.77;;;11.40;99.90;;;;;;5119448;27;20203;-69
2021/05/01 09:33:38;;;;;;;29.40;22.63;;;11.20;99.90;;;;;;5121678;27;20222;-68
2021/05/01 09:36:09;;;;;;;28.23;22.80;;;11.00;99.90;;;;;;5120440;27;20217;-69
2021/05/01 09:38:39;;;;;;;28.30;21.25;;;11.10;99.90;;;;;;5121330;27;20207;-67
2021/05/01 09:41:11;;;;;;;27.35;21.15;;;11.20;99.90;;;;;;5125070;27;20191;-67
2021/05/01 09:43:58;;;;;;;25.60;21.60;;;11.20;99.90;;;;;;5124969;27;20680;-68
2021/05/01 09:46:24;;;;;;;25.70;20.05;;;11.60;99.90;;;;;;5119724;27;20203;-69
2021/05/01 09:49:07;;;;;;;27.27;20.98;;;11.50;99.90;;;;;;5122365;27;20485;-69
2021/05/01 09:51:46;;;;;;;25.17;18.73;;;11.80;99.90;;;;;;5120393;27;20297;-69
2021/05/01 09:54:15;;;;;;;23.92;20.17;;;11.80;99.90;;;;;;5117564;27;20262;-67
2021/05/01 09:56:43;;;;;;;25.20;20.42;;;11.80;99.80;;;;;;5126029;27;20215;-69
2021/05/01 09:59:09;;;;;;;25.20;18.55;;;12.00;99.90;;;;;;5115164;27;20206;-68
2021/05/01 10:01:37;;;;;;;23.67;18.52;;;12.00;99.90;;;;;;5126243;27;20205;-68
2021/05/01 10:04:12;;;;;;;23.30;18.95;;;12.20;99.30;;;;;;5108219;27;20204;-68
2021/05/01 10:06:41;;;;;;;22.13;17.65;;;12.10;98.70;;;;;;5119631;27;20206;-69
2021/05/01 10:09:08;;;;;;;22.15;18.05;;;12.00;99.10;;;;;;5125296;27;20725;-69
2021/05/01 10:11:36;;;;;;;23.35;19.00;;;11.80;99.60;;;;;;5125851;27;20211;-68
2021/05/01 10:14:06;;;;;;;22.95;17.92;;;11.80;99.30;;;;;;5125458;28;20234;-69
2021/05/01 10:16:32;;;;;;;23.73;19.00;;;11.90;99.90;;;;;;5125883;28;20286;-68
2021/05/01 10:19:08;;;;;;;24.50;19.88;;;11.90;99.90;;;;;;5126000;28;20210;-68
2021/05/01 10:21:36;;;;;;;23.58;18.67;;;11.40;98.90;;;;;;5125150;28;20205;-70
2021/05/01 10:24:03;;;;;;;24.63;19.25;;;11.30;99.90;;;;;;5126320;28;20609;-69
2021/05/01 10:26:46;;;;;;;24.42;20.25;;;11.50;99.90;;;;;;5124398;28;20299;-71
2021/05/01 10:29:26;;;;;;;23.77;19.27;;;11.70;99.90;;;;;;5125485;28;20195;-71
2021/05/01 10:31:55;;;;;;;25.02;20.08;;;11.90;99.90;;;;;;5125032;28;20305;-70
2021/05/01 10:34:26;;;;;;;25.55;21.63;;;12.30;99.50;;;;;;5125955;27;20248;-69
2021/05/01 10:36:54;;;;;;;24.98;20.25;;;12.70;99.90;;;;;;5135102;27;20585;-69
2021/05/01 10:39:20;;;;;;;24.30;21.52;;;13.00;99.20;;;;;;5120021;28;20200;-72
2021/05/01 10:41:56;;;;;;;25.23;21.05;;;13.20;99.30;;;;;;5125131;28;20574;-71
2021/05/01 10:44:24;;;;;;;21.92;18.58;;;12.80;98.00;;;;;;5121178;28;20202;-69
2021/05/01 10:46:51;;;;;;;22.88;19.75;;;12.80;98.00;;;;;;5122384;28;20665;-71
2021/05/01 10:49:19;;;;;;;27.27;20.15;;;12.30;97.80;;;;;;5109151;28;20656;-71
2021/05/01 10:51:50;;;;;;;25.15;20.58;;;12.10;99.10;;;;;;5114803;27;20604;-70
2021/05/01 10:54:18;;;;;;;24.70;21.35;;;12.00;99.70;;;;;;5125694;27;20223;-70
2021/05/01 10:56:47;;;;;;;26.90;22.73;;;12.00;98.90;;;;;;5130384;27;20302;-71
2021/05/01 10:59:15;;;;;;;26.67;21.30;;;11.90;98.10;;;;;;5129392;27;20195;-71
2021/05/01 11:01:49;;;;;;;25.95;21.52;;;12.00;99.90;;;;;;5130102;27;20199;-70
2021/05/01 11:04:19;;;;;;;28.23;22.30;;;11.90;99.90;;;;;;5127742;27;20656;-70
2021/05/01 11:06:48;;;;;;;26.42;21.50;;;11.80;99.50;;;;;;5135283;27;20211;-69
2021/05/01 11:09:26;;;;;;;27.65;21.15;;;11.70;99.90;;;;;;5129355;27;20226;-70
2021/05/01 11:11:58;;;;;;;27.00;21.63;;;11.70;99.10;;;;;;5124837;27;20397;-71
2021/05/01 11:14:28;;;;;;;28.55;23.60;;;11.70;99.60;;;;;;5128219;27;20245;-70
2021/05/01 11:17:11;;;;;;;27.15;23.42;;;11.50;99.70;;;;;;5128204;27;20668;-70
2021/05/01 11:19:43;;;;;;;28.23;21.25;;;11.60;99.80;;;;;;5127284;27;20220;-71
2021/05/01 11:22:13;;;;;;;26.73;22.25;;;11.70;99.40;;;;;;5112082;27;20194;-71
2021/05/01 11:24:40;;;;;;;31.30;22.05;;;11.70;99.70;;;;;;5129354;27;20656;-69
2021/05/01 11:27:07;;;;;;;26.38;22.48;;;11.60;99.90;;;;;;5129308;27;20203;-70
2021/05/01 11:29:34;;;;;;;30.42;24.30;;;11.60;99.80;;;;;;5127179;27;20210;-70
2021/05/01 11:32:02;;;;;;;27.38;23.45;;;11.60;99.90;;;;;;5129820;27;20207;-69
2021/05/01 11:34:31;;;;;;;27.10;22.77;;;11.50;99.70;;;;;;5129143;27;20235;-70
2021/05/01 11:37:01;;;;;;;27.38;21.45;;;11.50;99.90;;;;;;5129609;27;20191;-71
2021/05/01 11:39:28;;;;;;;28.30;22.90;;;11.70;99.90;;;;;;5127325;27;20202;-69
2021/05/01 11:41:56;;;;;;;28.98;22.52;;;11.80;99.90;;;;;;5128545;27;20207;-70
2021/05/01 11:44:25;;;;;;;29.23;23.35;;;11.90;99.70;;;;;;5124244;27;20208;-71
2021/05/01 11:46:57;;;;;;;29.20;24.10;;;11.90;99.20;;;;;;5126193;27;20297;-70
2021/05/01 11:49:26;;;;;;;26.23;21.90;;;11.90;99.90;;;;;;5123616;27;20213;-72
2021/05/01 11:52:24;;;;;;;27.35;23.30;;;12.20;99.90;;;;;;5115340;27;20215;-72
2021/05/01 11:55:20;;;;;;;27.77;23.60;;;12.20;99.80;;;;;;5122322;27;20223;-73
2021/05/01 11:57:49;;;;;;;34.33;27.35;;;12.10;99.90;;;;;;5116479;27;20195;-72
2021/05/01 12:00:28;;;;;;;30.80;25.88;;;12.20;99.90;;;;;;5136268;27;20294;-72
2021/05/01 12:02:56;;;;;;;32.00;26.83;;;12.20;99.90;;;;;;5132669;27;20208;-71
2021/05/01 12:05:24;;;;;;;28.90;23.48;;;12.20;99.90;;;;;;5127894;27;20191;-73
2021/05/01 12:07:55;;;;;;;31.05;25.50;;;12.30;99.90;;;;;;5131129;27;20281;-72
2021/05/01 12:10:23;;;;;;;34.45;26.30;;;12.20;99.30;;;;;;5130040;27;20670;-73
2021/05/01 12:12:56;;;;;;;31.08;24.52;;;12.40;99.90;;;;;;5119122;27;20205;-71
2021/05/01 12:15:31;;;;;;;27.42;23.35;;;12.60;99.90;;;;;;5126339;27;20233;-72
2021/05/01 12:17:58;;;;;;;29.73;25.05;;;12.70;99.80;;;;;;5120477;27;20190;-72
2021/05/01 12:20:28;;;;;;;31.23;26.17;;;12.80;99.60;;;;;;5126594;27;20330;-70
2021/05/01 12:22:55;;;;;;;28.27;23.35;;;12.80;99.90;;;;;;5128485;27;20300;-71
2021/05/01 12:25:45;;;;;;;29.27;24.55;;;12.90;99.90;;;;;;5128245;27;20230;-72
2021/05/01 12:28:12;;;;;;;29.33;25.00;;;13.00;99.30;;;;;;5129406;27;20294;-70
2021/05/01 12:31:00;;;;;;;29.25;25.25;;;13.10;99.50;;;;;;5129353;27;20582;-73
2021/05/01 12:33:52;;;;;;;33.75;25.23;;;13.10;98.60;;;;;;5127911;27;20540;-69
2021/05/01 12:36:25;;;;;;;31.02;25.83;;;13.00;98.50;;;;;;5125565;27;20206;-71
2021/05/01 12:38:53;;;;;;;27.90;24.90;;;12.90;99.30;;;;;;5127345;27;20278;-71